ETD72W OMAA-EIDW
Flight info
| Callsign | ETD72W |
|---|---|
| Flight time | N/A |
| Altitude | 34000 |
| Route | ATUDO DCT DANOK DCT SOMAL DCT DEBUD DCT KSA T503 OVANO L768 FIRAS R655 LEBOR UR655 BALMA DCT VESAR UB545 MUT UL619 OKLAM/N0485F360 UL619 OSVEL UQ23 OSDAN UQ26 TUDBU DCT GRN T226 NAVOD DCT INVED DCT DITIS DCT LOMKI DCT VARIK DCT KATCE DCT PREXA DCT RAVLO Y70 OTBED L60 PENIL UL28 LELDO M145 BAGSO BAGSO4L |
| Aircraft | B77W/H-SDE1E2E3FGHIJ2J3J4J5M1RWXY/LB1D1 |
Departure
| Time | N/A |
|---|---|
| Airport | Zayed International Airport (OMAA) |
Arrival
| Time | 2026-05-06 22:04 |
|---|---|
| Airport | Dublin Airport (EIDW) |
| Time | Latitude | Longitude | Altitude | Speed | Heading |
|---|---|---|---|---|---|
| 2026-05-06 22:04 | 53.43157 | -6.25505 | 217 ft | 10 kts | 157° |
| 2026-05-06 22:04 | 53.43095 | -6.25462 | 223 ft | 10 kts | 157° |
| 2026-05-06 22:04 | 53.43033 | -6.25417 | 218 ft | 10 kts | 156° |
| 2026-05-06 22:04 | 53.42969 | -6.25370 | 223 ft | 10 kts | 156° |
| 2026-05-06 22:05 | 53.42901 | -6.25320 | 223 ft | 11 kts | 156° |
| 2026-05-06 22:05 | 53.42830 | -6.25268 | 218 ft | 11 kts | 156° |
| 2026-05-06 22:05 | 53.42755 | -6.25212 | 223 ft | 12 kts | 152° |
| 2026-05-06 22:05 | 53.42695 | -6.25110 | 222 ft | 14 kts | 143° |
| 2026-05-06 22:06 | 53.42608 | -6.25038 | 224 ft | 14 kts | 156° |
| 2026-05-06 22:06 | 53.42516 | -6.24972 | 219 ft | 14 kts | 157° |
| 2026-05-06 22:06 | 53.42424 | -6.24907 | 221 ft | 14 kts | 157° |
| 2026-05-06 22:06 | 53.42363 | -6.24814 | 226 ft | 12 kts | 95° |
| 2026-05-06 22:07 | 53.42404 | -6.24692 | 221 ft | 12 kts | 59° |
| 2026-05-06 22:07 | 53.42442 | -6.24573 | 221 ft | 8 kts | 63° |
| 2026-05-06 22:07 | 53.42466 | -6.24527 | 225 ft | 5 kts | 23° |
| 2026-05-06 22:07 | 53.42493 | -6.24523 | 224 ft | 3 kts | 357° |
| 2026-05-06 22:08 | 53.42514 | -6.24529 | 223 ft | 4 kts | 352° |
| 2026-05-06 22:08 | 53.42536 | -6.24534 | 223 ft | 2 kts | 352° |
| 2026-05-06 22:08 | 53.42539 | -6.24534 | 223 ft | 1 kts | 353° |
| 2026-05-06 22:08 | 53.42546 | -6.24535 | 223 ft | 1 kts | 353° |
| 2026-05-06 22:09 | 53.42552 | -6.24537 | 223 ft | 0 kts | 353° |